KCEF

Westover ARB / Metropolitan Airport

Springfield/Chicopee, Massachusetts, USA
METAR KCEF 180656Z AUTO 34003KT 3SM -SN BR BKN002 M02/M02 A2993 RMK AO2 BKN V SCT SLP144 P0004 T10171020
Observed Flight Rules
Feb-18 @ 06:56 UTC (18 minutes ago) Instrument Flight Rules
Wind Visibility Clouds Conditions
340° at 3 knots 3 miles
  • Broken at 200' AGL
  • Light Snow
  • Mist
Temperatures Readings Precipitation
Current -2°C / 28°F
Dewpoint -2°C / 28°F
Humidity 100%
Altimeter 29.93" Hg
Pressure 1014.4 hPa
Elevation 75
Current Rain 0.04
METAR KCEF 180656Z AUTO 34003KT 3SM -SN BR BKN002 M02/M02 A2993 RMK AO2 BKN V SCT SLP144 P0004 T10171020
Observed Flight Rules
Feb-18 @ 06:56 UTC
(18 minutes ago)
LIFR
Wind Visibility
340° at 3 knots 3 miles
Clouds
  • Broken at 200' AGL
Conditions
  • Light Snow
  • Mist
Temperature Dewpoint
-2°C / 28°F -2°C / 28°F
Humidity Altimeter Pressure
100% 29.93" Hg 1014.4 hPa
Current Rain
0.04